Weather at Gävle Sandviken Airport

Public forecast

Using degrees Celsius for public forecast. Weather courtesy of forecast.io.

Closest aviation weather report (METAR) to Gävle Sandviken Airport

Report is more than 6 hours old.

Closest report is Dala Airport, 43.7 nm (80.9 km) WSW.

2022/11/14 15:20 (retrieved 2 years ago)

ESSD 141520Z 31005KT 290V350 9999 OVC005 06/05 Q1021

Closest aviation forecast (TAF) to Gävle Sandviken Airport

Forecast is more than 12 hours old.

Closest forecast is Stockholm-Arlanda Airport, 63.5 nm (117.6 km) SSE.

2023/02/22 21:21 (retrieved 1 year ago)

TAF ESSA 222030Z 2221/2321 17006KT 9999 BKN030 BECMG 2303/2305 3000 -SN TEMPO 2305/2316 1200 SN BKN007 BECMG 2316/2318 9999 NSW SCT020 PROB40 2318/2321 BKN006